Time;durP1;ratioP1;P1;durP2;ratioP2;P2;SDS_P1;SDS_P2;PMS_P1;PMS_P2;Temp;Humidity;BMP_temperature;BMP_pressure;BME280_temperature;BME280_humidity;BME280_pressure;Samples;Min_cycle;Max_cycle;Signal;HPM_P1;HPM_P2
2023/10/23 00:00:08;;;;;;;1.08;0.77;;;;;;;9.44;87.53;99239.03;339355;28;4656;-71
2023/10/23 00:00:20;;;;;;;0.90;0.80;;;;;;;9.47;87.36;99238.91;337428;28;7019;-71
2023/10/23 00:00:32;;;;;;;1.48;0.93;;;;;;;9.46;87.29;99239.84;335986;28;4896;-71
2023/10/23 00:00:44;;;;;;;1.80;1.10;;;;;;;9.48;87.36;99235.44;339680;28;4524;-71
2023/10/23 00:00:57;;;;;;;1.52;1.00;;;;;;;9.50;87.48;99238.81;337576;28;18456;-70
2023/10/23 00:01:09;;;;;;;0.90;0.80;;;;;;;9.48;87.42;99238.03;339471;28;5084;-70
2023/10/23 00:01:21;;;;;;;0.82;0.80;;;;;;;9.50;87.34;99243.19;337399;28;17988;-71
2023/10/23 00:01:38;;;;;;;1.10;0.90;;;;;;;9.48;87.37;99239.78;340274;28;4772;-70
2023/10/23 00:01:50;;;;;;;1.95;1.10;;;;;;;9.47;87.33;99244.09;339044;28;17933;-71
2023/10/23 00:02:03;;;;;;;2.65;1.10;;;;;;;9.46;87.93;99237.25;337265;28;17948;-71
2023/10/23 00:02:15;;;;;;;3.50;1.10;;;;;;;9.45;88.16;99238.13;336265;28;5509;-71
2023/10/23 00:02:27;;;;;;;3.00;1.35;;;;;;;9.45;88.00;99238.13;337801;28;5504;-71
2023/10/23 00:02:39;;;;;;;2.38;1.40;;;;;;;9.44;88.09;99239.03;340413;28;4505;-71
2023/10/23 00:02:51;;;;;;;2.08;1.40;;;;;;;9.44;87.84;99244.22;337005;28;5341;-71
2023/10/23 00:03:03;;;;;;;1.42;1.13;;;;;;;9.46;87.76;99237.25;339818;28;5381;-71
2023/10/23 00:03:15;;;;;;;1.60;1.20;;;;;;;9.46;87.45;99239.84;340612;28;5050;-71
2023/10/23 00:03:27;;;;;;;1.50;1.13;;;;;;;9.47;87.56;99236.31;337462;28;17613;-71
2023/10/23 00:03:40;;;;;;;1.13;0.88;;;;;;;9.47;87.60;99236.31;340253;28;5231;-71
2023/10/23 00:03:53;;;;;;;1.23;0.70;;;;;;;9.45;87.35;99235.53;336925;28;17826;-70
2023/10/23 00:04:06;;;;;;;1.25;0.73;;;;;;;9.46;87.33;99239.00;339419;28;4708;-70
2023/10/23 00:04:18;;;;;;;1.60;0.90;;;;;;;9.45;87.50;99232.09;336277;28;17533;-71
2023/10/23 00:04:30;;;;;;;3.78;1.20;;;;;;;9.43;87.43;99232.13;340399;28;4572;-71
2023/10/23 00:04:43;;;;;;;3.88;1.23;;;;;;;9.43;87.34;99233.91;337427;28;18389;-71
2023/10/23 00:04:55;;;;;;;3.95;1.20;;;;;;;9.46;87.41;99244.19;340253;28;5655;-71
2023/10/23 00:05:08;;;;;;;1.50;1.13;;;;;;;9.48;87.22;99240.63;337281;28;17620;-71
2023/10/23 00:05:20;;;;;;;1.60;1.20;;;;;;;9.51;86.97;99245.69;339888;28;5274;-71
2023/10/23 00:05:34;;;;;;;1.48;1.27;;;;;;;9.50;86.81;99237.97;332501;28;17785;-71
2023/10/23 00:05:46;;;;;;;1.20;1.00;;;;;;;9.50;87.08;99233.63;337625;28;17694;-71
2023/10/23 00:05:59;;;;;;;1.02;0.90;;;;;;;9.52;86.78;99242.22;340105;28;5471;-71
2023/10/23 00:06:10;;;;;;;1.10;1.00;;;;;;;9.54;87.08;99236.97;339070;28;5605;-71
2023/10/23 00:06:22;;;;;;;1.17;1.08;;;;;;;9.53;86.59;99236.09;334346;28;18233;-70
2023/10/23 00:06:35;;;;;;;1.20;1.05;;;;;;;9.54;86.48;99234.38;336845;28;17812;-70
2023/10/23 00:06:47;;;;;;;1.40;1.00;;;;;;;9.53;86.51;99237.88;334035;28;5331;-71
2023/10/23 00:06:59;;;;;;;1.45;1.05;;;;;;;9.49;86.51;99239.72;341557;28;5421;-71
2023/10/23 00:07:11;;;;;;;1.08;0.90;;;;;;;9.49;86.54;99237.13;339594;28;4492;-70
2023/10/23 00:07:23;;;;;;;1.00;0.80;;;;;;;9.49;86.49;99236.28;337606;28;4737;-71
2023/10/23 00:07:35;;;;;;;4.63;1.20;;;;;;;9.50;86.58;99237.97;341339;28;4672;-71
2023/10/23 00:07:47;;;;;;;4.80;1.30;;;;;;;9.48;86.71;99235.44;334131;28;12309;-71
2023/10/23 00:07:59;;;;;;;1.60;1.02;;;;;;;9.49;86.40;99237.13;341586;28;5418;-71
2023/10/23 00:08:11;;;;;;;1.48;1.00;;;;;;;9.48;86.35;99235.44;339502;28;5546;-71
2023/10/23 00:08:23;;;;;;;1.60;1.02;;;;;;;9.45;86.23;99230.34;336573;28;18085;-70
2023/10/23 00:08:36;;;;;;;1.60;0.95;;;;;;;9.45;86.54;99238.13;340150;28;4655;-70
2023/10/23 00:08:48;;;;;;;2.60;1.08;;;;;;;9.43;86.42;99236.50;337086;28;17648;-71
2023/10/23 00:09:00;;;;;;;3.40;1.10;;;;;;;9.36;86.69;99243.66;339906;28;5389;-71
2023/10/23 00:09:13;;;;;;;3.22;1.05;;;;;;;9.34;86.88;99242.84;340107;28;5573;-70
2023/10/23 00:09:25;;;;;;;1.80;1.00;;;;;;;9.35;86.95;99239.34;337601;28;19300;-70
2023/10/23 00:09:38;;;;;;;2.08;1.00;;;;;;;9.34;86.79;99240.25;338237;28;5451;-71
2023/10/23 00:09:51;;;;;;;2.20;1.08;;;;;;;9.34;86.98;99238.50;340982;28;4481;-72
2023/10/23 00:10:03;;;;;;;1.30;0.90;;;;;;;9.29;87.22;99239.56;338194;28;5674;-71
2023/10/23 00:10:15;;;;;;;1.92;0.90;;;;;;;9.28;87.25;99243.06;338925;28;5380;-71
2023/10/23 00:10:28;;;;;;;1.80;0.75;;;;;;;9.29;87.36;99242.16;339044;28;4757;-71
2023/10/23 00:10:42;;;;;;;1.60;0.95;;;;;;;9.19;87.42;99234.69;333770;28;18138;-72
2023/10/23 00:10:54;;;;;;;3.38;1.20;;;;;;;9.16;87.56;99237.38;337301;28;18697;-71
2023/10/23 00:11:06;;;;;;;3.08;1.17;;;;;;;9.16;87.86;99245.16;339442;28;5551;-71
2023/10/23 00:11:26;;;;;;;3.75;1.38;;;;;;;9.13;87.87;99240.06;337209;28;16774;-70
2023/10/23 00:11:38;;;;;;;3.15;1.42;;;;;;;9.13;87.96;99237.47;339188;28;17464;-70
2023/10/23 00:11:49;;;;;;;2.78;1.30;;;;;;;9.13;87.89;99240.06;337204;28;17781;-71
2023/10/23 00:12:02;;;;;;;5.18;1.40;;;;;;;9.13;88.00;99240.06;339440;28;4542;-71
2023/10/23 00:12:14;;;;;;;4.67;1.43;;;;;;;9.14;87.91;99236.59;336822;28;10866;-70
2023/10/23 00:12:26;;;;;;;3.05;1.40;;;;;;;9.12;88.05;99240.97;334345;28;13047;-70
2023/10/23 00:12:38;;;;;;;2.00;1.33;;;;;;;9.14;88.20;99235.75;338260;28;4636;-70
2023/10/23 00:12:50;;;;;;;1.90;1.05;;;;;;;9.12;88.06;99238.38;335616;28;18194;-70
2023/10/23 00:13:02;;;;;;;1.80;1.00;;;;;;;9.14;88.44;99239.19;335097;28;5647;-70
2023/10/23 00:13:14;;;;;;;1.45;0.95;;;;;;;9.15;88.41;99238.25;335826;28;18944;-70
2023/10/23 00:13:26;;;;;;;1.15;0.93;;;;;;;9.17;88.25;99240.81;339609;28;5462;-70
2023/10/23 00:13:38;;;;;;;1.17;1.00;;;;;;;9.19;88.07;99233.81;339609;28;4615;-70
2023/10/23 00:13:51;;;;;;;1.73;0.90;;;;;;;9.19;88.21;99234.69;334661;28;17925;-71
2023/10/23 00:14:04;;;;;;;2.00;0.88;;;;;;;9.21;87.82;99232.03;338446;28;14131;-70
2023/10/23 00:14:16;;;;;;;2.38;0.98;;;;;;;9.21;87.78;99232.03;332210;28;13236;-71
2023/10/23 00:14:28;;;;;;;1.92;0.88;;;;;;;9.24;87.58;99236.28;339021;28;5212;-71
2023/10/23 00:14:39;;;;;;;1.40;0.95;;;;;;;9.26;87.56;99229.31;339578;28;5308;-70
2023/10/23 00:14:52;;;;;;;1.75;1.02;;;;;;;9.25;87.30;99235.38;336491;28;18037;-71
2023/10/23 00:15:04;;;;;;;2.15;1.20;;;;;;;9.21;87.26;99232.03;339849;28;4522;-71
2023/10/23 00:15:16;;;;;;;1.83;1.10;;;;;;;9.19;87.31;99234.69;332662;28;17766;-70
2023/10/23 00:15:28;;;;;;;1.65;1.00;;;;;;;9.19;87.32;99239.88;340412;28;5305;-70
2023/10/23 00:15:40;;;;;;;2.00;1.00;;;;;;;9.22;87.28;99238.09;336876;28;18016;-70
2023/10/23 00:15:52;;;;;;;2.05;1.00;;;;;;;9.22;87.40;99235.50;339390;28;5551;-70
2023/10/23 00:16:04;;;;;;;1.48;1.10;;;;;;;9.20;87.57;99236.38;339960;28;4683;-70
2023/10/23 00:16:18;;;;;;;1.73;1.08;;;;;;;9.20;87.36;99238.97;336231;28;17684;-70
2023/10/23 00:16:30;;;;;;;1.77;0.85;;;;;;;9.24;87.38;99236.28;338042;28;4738;-70
2023/10/23 00:16:42;;;;;;;2.20;0.95;;;;;;;9.23;87.29;99234.56;335333;28;18419;-70
2023/10/23 00:16:54;;;;;;;2.83;1.20;;;;;;;9.24;87.12;99231.94;338411;28;5934;-70
2023/10/23 00:17:06;;;;;;;2.90;1.30;;;;;;;9.25;87.12;99237.97;337287;28;5235;-70
2023/10/23 00:17:18;;;;;;;2.08;1.23;;;;;;;9.25;86.94;99232.78;339907;28;4676;-71
2023/10/23 00:17:30;;;;;;;1.50;1.10;;;;;;;9.25;86.89;99236.22;336870;28;13144;-71
2023/10/23 00:17:42;;;;;;;1.45;0.98;;;;;;;9.22;87.12;99236.31;339153;28;6767;-70
2023/10/23 00:17:54;;;;;;;2.22;0.90;;;;;;;9.25;87.06;99245.75;338599;28;4692;-69
2023/10/23 00:18:06;;;;;;;2.60;1.00;;;;;;;9.26;86.93;99239.69;335839;28;5112;-70
2023/10/23 00:18:18;;;;;;;2.90;1.40;;;;;;;9.27;86.99;99236.16;337331;28;18453;-71
2023/10/23 00:18:30;;;;;;;2.58;1.33;;;;;;;9.28;86.96;99237.88;338716;28;4679;-71
2023/10/23 00:18:42;;;;;;;1.60;1.10;;;;;;;9.29;86.75;99234.38;336617;28;13470;-71
2023/10/23 00:18:54;;;;;;;1.33;0.88;;;;;;;9.27;87.08;99238.75;339311;28;5116;-71
2023/10/23 00:19:07;;;;;;;1.67;1.00;;;;;;;9.25;87.11;99232.78;336725;28;18691;-71
2023/10/23 00:19:19;;;;;;;1.67;1.00;;;;;;;9.26;86.80;99239.69;339900;28;5322;-71
2023/10/23 00:19:31;;;;;;;1.75;1.00;;;;;;;9.26;86.77;99243.09;339163;28;5255;-71
2023/10/23 00:19:43;;;;;;;1.27;0.80;;;;;;;9.24;86.88;99241.47;337165;28;18254;-71
2023/10/23 00:19:54;;;;;;;1.38;0.98;;;;;;;9.20;86.89;99241.56;339911;28;5442;-71
2023/10/23 00:20:08;;;;;;;1.30;1.00;;;;;;;9.18;87.10;99243.34;336283;28;18037;-71
2023/10/23 00:20:20;;;;;;;1.45;1.00;;;;;;;9.22;87.21;99238.09;341889;28;4499;-73
2023/10/23 00:20:32;;;;;;;1.20;0.93;;;;;;;9.23;86.98;99244.94;336592;28;17852;-72
2023/10/23 00:20:44;;;;;;;1.20;0.95;;;;;;;9.23;86.84;99242.34;339214;28;4934;-72
2023/10/23 00:20:56;;;;;;;1.40;1.00;;;;;;;9.20;86.85;99236.38;340720;28;5342;-72
2023/10/23 00:21:08;;;;;;;2.00;1.10;;;;;;;9.19;86.99;99245.06;332261;28;16399;-73
2023/10/23 00:21:20;;;;;;;3.00;1.20;;;;;;;9.20;86.88;99241.56;341011;28;5594;-71
2023/10/23 00:21:32;;;;;;;2.72;1.00;;;;;;;9.21;87.04;99247.59;338083;28;17977;-71
2023/10/23 00:21:44;;;;;;;2.53;1.02;;;;;;;9.18;86.95;99245.13;340636;28;5552;-71
2023/10/23 00:21:57;;;;;;;1.52;1.10;;;;;;;9.15;86.93;99248.63;338872;28;4495;-71
2023/10/23 00:22:09;;;;;;;2.58;1.00;;;;;;;9.15;87.08;99240.84;340654;28;5575;-71
2023/10/23 00:22:21;;;;;;;2.70;1.10;;;;;;;9.17;86.99;99246.00;341327;28;5374;-71
2023/10/23 00:22:33;;;;;;;2.55;1.20;;;;;;;9.16;87.09;99250.34;338356;28;17556;-71
2023/10/23 00:22:45;;;;;;;2.10;1.00;;;;;;;9.16;87.06;99245.16;340335;28;4651;-70
2023/10/23 00:22:57;;;;;;;2.10;1.10;;;;;;;9.17;86.64;99246.84;336310;28;10944;-72
2023/10/23 00:23:09;;;;;;;2.72;1.20;;;;;;;9.18;87.03;99242.53;340028;28;5323;-70
2023/10/23 00:23:21;;;;;;;3.03;1.25;;;;;;;9.19;86.73;99250.25;339617;28;4669;-71
2023/10/23 00:23:33;;;;;;;2.63;1.17;;;;;;;9.21;86.75;99247.59;336622;28;17795;-70
2023/10/23 00:23:45;;;;;;;3.33;1.17;;;;;;;9.20;86.58;99245.91;339123;28;4548;-70
2023/10/23 00:23:57;;;;;;;3.25;1.08;;;;;;;9.20;86.47;99248.50;339512;28;4720;-70
2023/10/23 00:24:09;;;;;;;2.20;1.08;;;;;;;9.21;86.67;99247.59;336869;28;17534;-71
2023/10/23 00:24:21;;;;;;;1.75;1.10;;;;;;;9.17;86.77;99251.19;339750;28;5120;-71
2023/10/23 00:24:33;;;;;;;1.73;0.90;;;;;;;9.16;86.60;99250.34;336829;28;18884;-71
2023/10/23 00:24:46;;;;;;;1.88;1.10;;;;;;;9.16;86.48;99252.09;340152;28;5249;-71
2023/10/23 00:24:58;;;;;;;2.50;1.20;;;;;;;9.14;86.52;99246.94;338027;28;4745;-71
2023/10/23 00:25:10;;;;;;;3.58;1.33;;;;;;;9.13;86.85;99250.44;340093;28;4800;-71
2023/10/23 00:25:22;;;;;;;2.72;1.02;;;;;;;9.13;86.78;99252.19;340155;28;4696;-71
2023/10/23 00:25:34;;;;;;;2.00;1.02;;;;;;;9.09;86.60;99246.25;336121;28;13238;-71
2023/10/23 00:25:46;;;;;;;1.25;0.90;;;;;;;9.07;86.80;99250.63;339646;28;5283;-70
2023/10/23 00:25:58;;;;;;;2.13;1.00;;;;;;;9.08;86.59;99247.16;336435;28;13807;-70
2023/10/23 00:26:10;;;;;;;1.95;0.90;;;;;;;9.07;86.87;99249.78;339980;28;4502;-70
2023/10/23 00:26:22;;;;;;;1.23;0.90;;;;;;;9.07;86.60;99249.78;339640;28;4913;-70
2023/10/23 00:26:34;;;;;;;2.00;1.10;;;;;;;9.05;86.83;99247.25;335489;28;18049;-71
2023/10/23 00:26:46;;;;;;;2.03;1.10;;;;;;;9.04;87.21;99244.72;339234;28;5540;-71
2023/10/23 00:26:58;;;;;;;2.85;1.27;;;;;;;9.03;86.75;99254.22;335265;28;13138;-71
2023/10/23 00:27:10;;;;;;;3.92;1.38;;;;;;;9.02;86.85;99247.38;338003;28;4659;-71
2023/10/23 00:27:22;;;;;;;2.78;1.15;;;;;;;9.02;87.00;99251.72;338627;28;5454;-71
2023/10/23 00:27:34;;;;;;;1.70;0.85;;;;;;;9.00;87.12;99255.19;335025;28;18123;-71
2023/10/23 00:27:46;;;;;;;0.95;0.70;;;;;;;8.99;87.02;99256.09;338927;28;4512;-71
2023/10/23 00:27:58;;;;;;;1.30;0.90;;;;;;;9.00;87.09;99251.75;338455;28;13598;-70
2023/10/23 00:28:10;;;;;;;1.50;1.00;;;;;;;9.01;87.18;99253.44;336213;28;17784;-71
2023/10/23 00:28:22;;;;;;;1.70;1.10;;;;;;;9.01;87.37;99250.84;333294;28;4847;-71
2023/10/23 00:28:34;;;;;;;1.40;0.90;;;;;;;9.01;87.28;99256.03;336226;28;13368;-71
2023/10/23 00:28:48;;;;;;;0.98;0.80;;;;;;;9.02;87.31;99251.72;336120;28;4719;-70
2023/10/23 00:29:01;;;;;;;1.00;0.73;;;;;;;8.94;87.39;99255.38;334242;28;13301;-71
2023/10/23 00:29:13;;;;;;;1.05;0.75;;;;;;;8.94;87.47;99254.53;337559;28;4624;-70
2023/10/23 00:29:25;;;;;;;1.23;0.80;;;;;;;8.94;87.47;99252.78;336753;28;17901;-70
2023/10/23 00:29:37;;;;;;;1.40;0.80;;;;;;;8.95;87.45;99251.03;335090;28;4593;-71
2023/10/23 00:29:49;;;;;;;1.90;0.95;;;;;;;8.95;87.43;99253.63;335982;28;17346;-71
2023/10/23 00:30:01;;;;;;;2.10;1.10;;;;;;;8.95;87.55;99256.22;339703;28;4549;-70
2023/10/23 00:30:13;;;;;;;1.30;1.00;;;;;;;8.95;87.57;99261.41;339977;28;5111;-71
2023/10/23 00:30:25;;;;;;;1.90;1.13;;;;;;;8.93;87.49;99253.69;337844;28;17955;-72
2023/10/23 00:30:37;;;;;;;2.67;1.05;;;;;;;8.93;87.70;99258.88;340596;28;4675;-71
2023/10/23 00:30:49;;;;;;;2.50;1.10;;;;;;;8.91;87.81;99255.47;337212;28;15971;-71
2023/10/23 00:31:01;;;;;;;3.28;1.30;;;;;;;8.90;87.89;99256.38;339901;28;4533;-71
2023/10/23 00:31:13;;;;;;;2.70;1.33;;;;;;;8.91;87.80;99254.63;335397;28;4580;-71
2023/10/23 00:31:25;;;;;;;2.08;1.08;;;;;;;8.89;87.98;99251.25;337892;28;17975;-71
2023/10/23 00:31:37;;;;;;;1.38;0.98;;;;;;;8.88;87.97;99253.00;338922;28;4606;-71
2023/10/23 00:31:50;;;;;;;1.35;1.02;;;;;;;8.88;88.22;99254.75;338942;28;8858;-71
2023/10/23 00:32:04;;;;;;;1.50;1.10;;;;;;;8.87;88.30;99258.22;336807;28;17601;-70
2023/10/23 00:32:16;;;;;;;1.77;1.27;;;;;;;8.89;88.27;99253.81;338554;28;17803;-70
2023/10/23 00:32:28;;;;;;;2.05;1.02;;;;;;;8.89;88.04;99256.41;341429;28;4477;-71
2023/10/23 00:32:40;;;;;;;2.83;1.20;;;;;;;8.91;88.18;99254.63;336357;28;16977;-71
2023/10/23 00:32:52;;;;;;;2.17;1.10;;;;;;;8.91;88.01;99260.66;339746;28;4598;-71
2023/10/23 00:33:05;;;;;;;1.38;0.82;;;;;;;8.91;87.98;99257.22;339247;28;13435;-71
2023/10/23 00:33:17;;;;;;;1.35;0.90;;;;;;;8.92;87.90;99253.75;338011;28;18097;-71
2023/10/23 00:33:29;;;;;;;1.52;1.00;;;;;;;8.93;88.07;99260.59;339516;28;5040;-71
2023/10/23 00:33:41;;;;;;;1.50;0.93;;;;;;;8.94;88.17;99254.53;336758;28;18852;-71
2023/10/23 00:33:54;;;;;;;3.13;1.25;;;;;;;8.95;88.46;99264.00;334214;28;4943;-71
2023/10/23 00:34:06;;;;;;;4.20;1.35;;;;;;;8.96;88.29;99257.94;337216;28;18524;-72
2023/10/23 00:34:18;;;;;;;3.95;1.23;;;;;;;8.95;88.42;99258.81;341794;28;4652;-71
2023/10/23 00:34:30;;;;;;;1.50;1.00;;;;;;;8.95;88.48;99256.22;337763;28;13905;-72
2023/10/23 00:34:42;;;;;;;1.40;0.90;;;;;;;8.95;88.44;99257.09;340612;28;4566;-71
2023/10/23 00:34:54;;;;;;;1.33;0.82;;;;;;;8.94;88.80;99260.56;340219;28;4773;-71
2023/10/23 00:35:07;;;;;;;1.98;0.80;;;;;;;8.96;88.34;99258.78;337083;28;17987;-71
2023/10/23 00:35:19;;;;;;;2.30;0.90;;;;;;;8.98;88.64;99258.72;339792;28;4644;-71
2023/10/23 00:35:32;;;;;;;2.13;1.20;;;;;;;8.98;88.70;99250.94;332261;28;16131;-71
2023/10/23 00:35:44;;;;;;;1.73;1.15;;;;;;;8.99;88.73;99263.00;339821;28;4553;-70
2023/10/23 00:35:56;;;;;;;2.00;1.25;;;;;;;8.99;88.50;99256.09;337930;28;5306;-71
2023/10/23 00:36:08;;;;;;;1.50;1.00;;;;;;;9.03;88.40;99263.75;339199;28;4644;-71
2023/10/23 00:36:20;;;;;;;1.23;0.85;;;;;;;9.04;88.68;99261.13;339580;28;5138;-71
2023/10/23 00:36:32;;;;;;;1.35;0.90;;;;;;;9.05;88.16;99262.81;336074;28;13257;-71
2023/10/23 00:36:44;;;;;;;1.77;1.00;;;;;;;9.04;88.19;99263.72;339184;28;5328;-71
2023/10/23 00:36:56;;;;;;;1.70;1.10;;;;;;;9.07;88.00;99261.00;337924;28;4812;-72
2023/10/23 00:37:08;;;;;;;1.90;1.00;;;;;;;9.07;88.12;99262.75;339787;28;4499;-71
2023/10/23 00:37:20;;;;;;;1.33;1.00;;;;;;;9.09;87.99;99263.56;338947;28;5474;-70
2023/10/23 00:37:32;;;;;;;1.27;0.90;;;;;;;9.09;87.94;99263.56;336986;28;13134;-71
2023/10/23 00:37:44;;;;;;;1.45;0.85;;;;;;;9.09;87.80;99260.97;338910;28;4741;-70
2023/10/23 00:37:56;;;;;;;1.85;0.75;;;;;;;9.07;87.70;99266.19;337835;28;4596;-71
2023/10/23 00:38:08;;;;;;;2.10;0.75;;;;;;;9.07;87.97;99266.19;333559;28;18196;-71
2023/10/23 00:38:20;;;;;;;1.80;0.93;;;;;;;9.06;87.74;99264.50;339845;28;4559;-70
2023/10/23 00:38:32;;;;;;;2.17;1.02;;;;;;;9.07;87.68;99254.97;336719;28;18849;-71
2023/10/23 00:38:44;;;;;;;2.95;1.10;;;;;;;9.05;87.42;99260.22;339758;28;4677;-71
2023/10/23 00:38:56;;;;;;;3.22;1.10;;;;;;;9.07;87.63;99258.41;335953;28;18289;-71
2023/10/23 00:39:08;;;;;;;3.22;1.00;;;;;;;9.08;87.71;99267.91;339136;28;4596;-70
2023/10/23 00:39:20;;;;;;;4.00;1.13;;;;;;;9.08;87.64;99262.72;339279;28;5769;-70
2023/10/23 00:39:32;;;;;;;3.08;1.10;;;;;;;9.08;87.43;99262.72;336893;28;17878;-71
2023/10/23 00:39:44;;;;;;;3.58;1.40;;;;;;;9.07;87.24;99265.34;335476;28;5316;-71
2023/10/23 00:39:56;;;;;;;2.92;1.25;;;;;;;9.06;87.43;99264.50;340489;28;4515;-70
2023/10/23 00:40:09;;;;;;;2.88;1.25;;;;;;;9.06;87.36;99261.91;336829;28;17613;-70
2023/10/23 00:40:21;;;;;;;2.33;1.00;;;;;;;9.08;87.38;99261.88;339949;28;5482;-70
2023/10/23 00:40:33;;;;;;;1.25;0.85;;;;;;;9.05;87.08;99267.97;338732;28;17963;-71
2023/10/23 00:40:45;;;;;;;1.30;0.80;;;;;;;9.01;86.97;99258.63;339950;28;5533;-70
2023/10/23 00:40:57;;;;;;;1.30;0.82;;;;;;;9.02;87.34;99262.91;336258;28;15139;-71
2023/10/23 00:41:09;;;;;;;1.25;1.00;;;;;;;9.02;87.33;99268.09;339628;28;4613;-71
2023/10/23 00:41:21;;;;;;;1.27;1.10;;;;;;;9.03;87.55;99269.78;339800;28;4679;-71
2023/10/23 00:41:33;;;;;;;1.02;0.93;;;;;;;9.01;87.41;99263.78;336238;28;17627;-71
2023/10/23 00:41:45;;;;;;;1.10;1.00;;;;;;;9.01;87.75;99266.38;340821;28;4516;-71
2023/10/23 00:41:57;;;;;;;1.10;1.00;;;;;;;9.00;87.32;99264.72;337380;28;13224;-72
2023/10/23 00:42:09;;;;;;;1.70;0.80;;;;;;;9.01;87.58;99266.38;339556;28;4623;-70
2023/10/23 00:42:21;;;;;;;3.15;0.82;;;;;;;9.02;87.36;99270.69;339064;28;5628;-71
2023/10/23 00:42:33;;;;;;;3.55;0.80;;;;;;;9.04;87.40;99268.91;336467;28;18749;-71
2023/10/23 00:42:45;;;;;;;3.55;0.95;;;;;;;9.02;87.61;99268.09;338939;28;5834;-70
2023/10/23 00:42:57;;;;;;;1.35;0.95;;;;;;;9.03;87.55;99272.38;336235;28;14041;-72
2023/10/23 00:43:20;;;;;;;1.23;0.93;;;;;;;9.00;87.49;99264.72;339371;28;4657;-71
2023/10/23 00:43:34;;;;;;;1.63;0.80;;;;;;;9.00;87.71;99269.91;336488;28;18822;-70
2023/10/23 00:43:46;;;;;;;2.00;0.98;;;;;;;9.03;87.39;99269.78;339766;28;4675;-70
2023/10/23 00:43:58;;;;;;;1.92;1.00;;;;;;;9.02;87.35;99273.28;337921;28;13678;-72
2023/10/23 00:44:10;;;;;;;2.17;1.00;;;;;;;9.03;87.29;99268.94;337555;28;17275;-71
2023/10/23 00:44:22;;;;;;;1.73;0.90;;;;;;;9.03;87.40;99262.00;339921;28;5091;-70
2023/10/23 00:44:34;;;;;;;1.63;0.80;;;;;;;9.05;87.24;99267.97;337338;28;18064;-71
2023/10/23 00:44:46;;;;;;;1.70;0.80;;;;;;;9.06;87.32;99269.69;340360;28;4564;-71
2023/10/23 00:44:58;;;;;;;1.50;0.80;;;;;;;9.07;87.10;99268.78;337513;28;12672;-71
2023/10/23 00:45:10;;;;;;;2.03;0.85;;;;;;;9.09;87.02;99268.75;340054;28;4722;-71
2023/10/23 00:45:22;;;;;;;2.28;0.90;;;;;;;9.09;86.96;99272.16;336669;28;5729;-71
2023/10/23 00:45:34;;;;;;;1.95;1.00;;;;;;;9.09;87.09;99274.75;337282;28;18170;-70
2023/10/23 00:45:56;;;;;;;1.92;1.23;;;;;;;9.09;87.51;99269.56;339106;28;5378;-70
2023/10/23 00:46:15;;;;;;;1.70;1.25;;;;;;;9.08;87.26;99267.91;335930;28;17508;-71
2023/10/23 00:46:28;;;;;;;2.07;0.97;;;;;;;9.10;87.29;99271.28;336659;28;18225;-71
2023/10/23 00:46:42;;;;;;;1.92;0.90;;;;;;;9.11;87.14;99272.97;336511;28;18578;-70
2023/10/23 00:46:55;;;;;;;0.95;0.80;;;;;;;9.12;87.14;99269.50;335340;28;17969;-70
2023/10/23 00:47:08;;;;;;;1.27;0.80;;;;;;;9.11;87.03;99272.97;339860;28;5147;-71
2023/10/23 00:47:21;;;;;;;1.40;0.88;;;;;;;9.11;87.06;99272.97;333506;28;18032;-73
2023/10/23 00:47:33;;;;;;;1.40;0.98;;;;;;;9.10;86.98;99271.28;335364;28;12557;-72
2023/10/23 00:47:46;;;;;;;1.02;0.90;;;;;;;9.09;86.53;99269.56;340934;28;5576;-72
2023/10/23 00:47:58;;;;;;;1.65;1.00;;;;;;;9.09;86.87;99269.56;340230;28;4654;-70
2023/10/23 00:48:10;;;;;;;1.67;0.90;;;;;;;9.08;86.68;99273.09;336916;28;4784;-70
2023/10/23 00:48:24;;;;;;;1.48;0.90;;;;;;;9.08;86.61;99267.91;335047;28;5507;-71
2023/10/23 00:48:37;;;;;;;1.35;0.85;;;;;;;9.07;86.65;99271.38;337164;28;19344;-71
2023/10/23 00:48:50;;;;;;;2.47;1.00;;;;;;;9.06;86.71;99269.69;336078;28;6008;-71
2023/10/23 00:49:03;;;;;;;3.35;1.17;;;;;;;9.08;86.69;99274.84;338212;28;5207;-70
2023/10/23 00:49:15;;;;;;;2.20;1.02;;;;;;;9.07;86.67;99266.19;335361;28;15299;-71
2023/10/23 00:49:27;;;;;;;1.60;0.85;;;;;;;9.05;86.63;99273.16;338190;28;5491;-71
2023/10/23 00:49:41;;;;;;;1.90;0.90;;;;;;;9.04;86.58;99271.50;328875;28;16669;-71
2023/10/23 00:49:55;;;;;;;2.20;0.90;;;;;;;9.04;86.74;99276.69;335799;28;5883;-70
2023/10/23 00:50:07;;;;;;;1.30;0.60;;;;;;;9.04;86.63;99276.69;333797;28;18087;-71
2023/10/23 00:50:19;;;;;;;0.75;0.63;;;;;;;9.03;86.62;99266.34;332908;28;13269;-70
2023/10/23 00:50:31;;;;;;;0.90;0.82;;;;;;;9.03;86.79;99269.78;337821;28;5264;-70
2023/10/23 00:50:43;;;;;;;1.05;0.95;;;;;;;9.02;86.56;99268.09;338893;28;4695;-71
2023/10/23 00:50:57;;;;;;;1.10;1.00;;;;;;;9.03;86.90;99268.94;336068;28;17727;-71
2023/10/23 00:51:11;;;;;;;1.02;0.93;;;;;;;9.03;86.77;99274.97;338525;28;5532;-71
2023/10/23 00:51:24;;;;;;;0.90;0.73;;;;;;;9.03;86.79;99264.59;336879;28;16616;-70
2023/10/23 00:51:37;;;;;;;0.90;0.70;;;;;;;9.03;86.73;99269.78;333316;28;4652;-71
2023/10/23 00:51:49;;;;;;;1.38;0.80;;;;;;;9.03;86.87;99274.13;338058;28;5878;-71
2023/10/23 00:52:02;;;;;;;2.00;1.10;;;;;;;9.04;86.75;99271.50;336597;28;18223;-71
2023/10/23 00:52:14;;;;;;;2.08;1.13;;;;;;;9.05;86.56;99267.97;339460;28;5180;-71
2023/10/23 00:52:28;;;;;;;1.30;0.82;;;;;;;9.07;86.52;99271.38;337161;28;17838;-71
2023/10/23 00:52:40;;;;;;;0.98;0.70;;;;;;;9.05;86.43;99267.16;332478;28;4767;-70
2023/10/23 00:52:52;;;;;;;1.33;0.85;;;;;;;9.05;86.22;99262.81;335841;28;19286;-71
2023/10/23 00:53:04;;;;;;;1.60;1.00;;;;;;;9.03;86.16;99263.75;338479;28;5034;-73
2023/10/23 00:53:22;;;;;;;1.45;0.93;;;;;;;9.01;86.30;99266.38;334154;28;12740;-72
2023/10/23 00:53:38;;;;;;;1.10;0.75;;;;;;;9.00;86.37;99265.56;335666;28;17790;-72
2023/10/23 00:53:51;;;;;;;2.80;0.80;;;;;;;9.02;86.42;99268.09;337573;28;18080;-71
2023/10/23 00:54:05;;;;;;;3.22;1.00;;;;;;;9.03;86.60;99263.75;335900;28;17735;-72
2023/10/23 00:54:19;;;;;;;1.98;1.10;;;;;;;9.05;86.57;99261.97;335072;28;17745;-71
2023/10/23 00:54:32;;;;;;;1.40;0.95;;;;;;;9.03;86.48;99264.59;334539;28;18039;-71
2023/10/23 00:54:46;;;;;;;1.17;0.85;;;;;;;9.04;86.31;99266.31;338578;28;4493;-70
2023/10/23 00:54:58;;;;;;;1.13;0.90;;;;;;;9.04;86.57;99268.91;337271;28;17962;-70
2023/10/23 00:55:11;;;;;;;1.60;0.90;;;;;;;9.02;86.43;99264.66;339446;28;11343;-71
2023/10/23 00:55:23;;;;;;;1.92;0.90;;;;;;;9.03;86.48;99267.19;336466;28;18252;-70
2023/10/23 00:55:36;;;;;;;1.42;0.88;;;;;;;9.01;86.42;99268.97;335112;28;4557;-71
2023/10/23 00:55:50;;;;;;;1.13;0.80;;;;;;;9.03;86.34;99263.75;337490;28;19319;-71
2023/10/23 00:56:04;;;;;;;1.25;0.77;;;;;;;9.00;86.75;99265.56;337117;28;18150;-72
2023/10/23 00:56:18;;;;;;;1.45;0.77;;;;;;;8.97;87.07;99267.38;338181;28;15526;-71
2023/10/23 00:56:31;;;;;;;1.20;0.63;;;;;;;8.96;87.24;99263.97;340969;28;5586;-72
2023/10/23 00:56:43;;;;;;;1.85;0.98;;;;;;;8.96;87.05;99260.53;338436;28;18172;-71
2023/10/23 00:56:56;;;;;;;1.70;1.02;;;;;;;8.96;87.17;99261.38;336921;28;5298;-71
2023/10/23 00:57:08;;;;;;;1.75;1.13;;;;;;;8.97;87.24;99267.38;338364;28;18023;-71
2023/10/23 00:57:20;;;;;;;1.08;0.90;;;;;;;8.97;86.98;99259.59;340638;28;4656;-71
2023/10/23 00:57:32;;;;;;;0.98;0.88;;;;;;;8.98;87.06;99266.50;338232;28;17905;-71
2023/10/23 00:57:44;;;;;;;1.10;0.90;;;;;;;8.98;87.12;99258.72;340137;28;5440;-71
2023/10/23 00:57:57;;;;;;;2.15;0.93;;;;;;;8.98;87.17;99263.91;336755;28;18197;-71
2023/10/23 00:58:09;;;;;;;2.10;0.90;;;;;;;9.00;87.21;99259.53;340334;28;4640;-71
2023/10/23 00:58:25;;;;;;;1.33;0.95;;;;;;;9.01;86.95;99261.22;340217;28;4671;-71
2023/10/23 00:58:42;;;;;;;1.20;1.00;;;;;;;9.02;86.72;99262.06;336422;28;17809;-71
2023/10/23 00:58:54;;;;;;;1.23;0.90;;;;;;;9.04;86.87;99257.69;336836;28;16989;-71
2023/10/23 00:59:08;;;;;;;1.13;0.70;;;;;;;9.04;86.59;99263.72;340194;28;4717;-71
2023/10/23 00:59:21;;;;;;;1.50;0.82;;;;;;;9.06;86.63;99259.31;334090;28;17406;-72
2023/10/23 00:59:34;;;;;;;3.33;0.85;;;;;;;9.04;86.43;99255.94;337879;28;4674;-71
2023/10/23 00:59:46;;;;;;;2.75;0.73;;;;;;;9.04;86.30;99262.88;339656;28;5206;-71
2023/10/23 00:59:58;;;;;;;1.95;0.75;;;;;;;9.02;86.66;99256.91;335867;28;18253;-71
2023/10/23 01:00:11;;;;;;;1.05;0.75;;;;;;;9.02;86.94;99262.91;338669;28;17194;-71
2023/10/23 01:00:24;;;;;;;1.17;0.80;;;;;;;9.03;86.99;99258.56;335785;28;18149;-71
2023/10/23 01:00:38;;;;;;;1.17;0.75;;;;;;;9.00;87.27;99259.53;340209;28;4682;-71
2023/10/23 01:00:52;;;;;;;1.15;0.82;;;;;;;8.99;87.46;99263.00;337019;28;17952;-71